createdAt,value
2018-04-11T00:00:06.331Z,41.79
2018-04-11T00:01:06.193Z,41.72
2018-04-11T00:02:06.180Z,41.84
2018-04-11T00:03:06.262Z,41.87
2018-04-11T00:04:06.192Z,41.76
2018-04-11T00:05:06.249Z,41.82
2018-04-11T00:06:06.225Z,41.9
2018-04-11T00:07:06.197Z,41.76
2018-04-11T00:08:06.211Z,41.83
2018-04-11T00:09:06.202Z,41.8
2018-04-11T00:10:06.242Z,41.63
2018-04-11T00:11:06.231Z,41.83
2018-04-11T00:12:06.226Z,41.89
2018-04-11T00:13:06.208Z,41.73
2018-04-11T00:14:06.214Z,41.92
2018-04-11T00:15:06.223Z,41.84
2018-04-11T00:16:06.214Z,41.8
2018-04-11T00:17:06.224Z,41.77
2018-04-11T00:18:06.375Z,41.77
2018-04-11T00:19:06.212Z,41.77
2018-04-11T00:20:06.201Z,41.79
2018-04-11T00:21:06.224Z,41.93
2018-04-11T00:22:06.234Z,41.72
2018-04-11T00:23:06.227Z,41.81
2018-04-11T00:24:06.475Z,41.82
2018-04-11T00:25:06.496Z,41.76
2018-04-11T00:26:06.316Z,41.83
2018-04-11T00:27:06.339Z,41.84
2018-04-11T00:28:06.226Z,41.79
2018-04-11T00:29:06.235Z,41.83
2018-04-11T00:30:06.225Z,41.86
2018-04-11T00:31:06.630Z,41.91
2018-04-11T00:32:06.286Z,41.87
2018-04-11T00:33:06.431Z,41.75
2018-04-11T00:34:06.217Z,41.69
2018-04-11T00:35:06.483Z,41.78
2018-04-11T00:36:06.182Z,41.89
2018-04-11T00:37:06.210Z,41.81
2018-04-11T00:38:06.227Z,41.9
2018-04-11T00:39:06.357Z,41.81
2018-04-11T00:40:06.279Z,41.73
2018-04-11T00:41:06.185Z,41.93
2018-04-11T00:42:06.462Z,41.9
2018-04-11T00:43:06.190Z,41.79
2018-04-11T00:44:06.203Z,41.85
2018-04-11T00:45:06.268Z,41.81
2018-04-11T00:46:06.282Z,41.68
2018-04-11T00:47:06.156Z,41.69
2018-04-11T00:48:06.205Z,41.84
2018-04-11T00:49:06.335Z,41.78
2018-04-11T00:50:06.212Z,41.84
2018-04-11T00:51:06.194Z,41.81
2018-04-11T00:52:06.223Z,41.75
2018-04-11T00:53:06.267Z,41.82
2018-04-11T00:54:06.223Z,41.84
2018-04-11T00:55:06.170Z,41.72
2018-04-11T00:56:06.208Z,41.85
2018-04-11T00:57:06.163Z,41.78
2018-04-11T00:58:06.195Z,41.77
2018-04-11T00:59:06.180Z,41.88
2018-04-11T01:00:06.172Z,41.91
2018-04-11T01:01:06.187Z,41.71
2018-04-11T01:02:06.220Z,41.76
2018-04-11T01:03:06.176Z,41.84
2018-04-11T01:04:06.174Z,41.75
2018-04-11T01:05:06.372Z,41.84
2018-04-11T01:06:06.201Z,41.88
2018-04-11T01:07:06.175Z,41.79
2018-04-11T01:08:06.491Z,41.81
2018-04-11T01:09:06.210Z,41.83
2018-04-11T01:10:06.216Z,41.72
2018-04-11T01:11:06.219Z,41.79
2018-04-11T01:12:06.154Z,41.82
2018-04-11T01:13:06.345Z,41.73
2018-04-11T01:14:06.260Z,41.86
2018-04-11T01:15:06.482Z,41.83
2018-04-11T01:16:06.404Z,41.78
2018-04-11T01:17:06.463Z,41.93
2018-04-11T01:18:06.160Z,41.88
2018-04-11T01:19:06.156Z,41.78
2018-04-11T01:20:06.283Z,41.83
2018-04-11T01:21:06.311Z,41.85
2018-04-11T01:22:06.552Z,41.75
2018-04-11T01:23:06.205Z,41.79
2018-04-11T01:24:06.173Z,41.84
2018-04-11T01:25:06.481Z,41.78
2018-04-11T01:26:06.187Z,41.82
2018-04-11T01:27:06.206Z,41.85
2018-04-11T01:28:06.444Z,41.77
2018-04-11T01:29:06.379Z,41.88
2018-04-11T01:30:06.172Z,41.83
2018-04-11T01:31:06.176Z,41.78
2018-04-11T01:32:06.243Z,41.81
2018-04-11T01:33:06.531Z,41.83
2018-04-11T01:34:06.213Z,41.73
2018-04-11T01:35:06.171Z,41.88
2018-04-11T01:36:06.160Z,41.83
2018-04-11T01:37:06.162Z,41.77
2018-04-11T01:38:06.416Z,41.87
2018-04-11T01:39:06.373Z,41.8
2018-04-11T01:40:06.163Z,41.77
2018-04-11T01:41:06.160Z,41.84
2018-04-11T01:42:06.486Z,41.84
2018-04-11T01:43:06.476Z,41.76
2018-04-11T01:44:06.169Z,41.83
2018-04-11T01:45:06.165Z,41.83
2018-04-11T01:46:06.152Z,41.75
2018-04-11T01:47:06.494Z,41.85
2018-04-11T01:48:06.357Z,41.88
2018-04-11T01:49:06.467Z,41.76
2018-04-11T01:50:06.194Z,41.87
2018-04-11T01:51:06.156Z,41.81
2018-04-11T01:52:06.171Z,41.76
2018-04-11T01:53:06.466Z,41.86
2018-04-11T01:54:06.163Z,41.86
2018-04-11T01:55:06.134Z,41.74
2018-04-11T01:56:06.152Z,41.81
2018-04-11T01:57:06.178Z,41.81
2018-04-11T01:58:06.166Z,41.71
2018-04-11T01:59:06.158Z,41.85
2018-04-11T02:00:06.217Z,41.77
2018-04-11T02:01:06.202Z,41.68
2018-04-11T02:02:06.211Z,41.9
2018-04-11T02:03:06.253Z,41.8
2018-04-11T02:04:06.160Z,41.75
2018-04-11T02:05:06.189Z,41.76
2018-04-11T02:06:06.289Z,41.89
2018-04-11T02:07:06.336Z,41.78
2018-04-11T02:08:06.154Z,41.83
2018-04-11T02:09:06.161Z,41.84
2018-04-11T02:10:06.229Z,41.72
2018-04-11T02:11:06.272Z,41.8
2018-04-11T02:12:06.206Z,41.84
2018-04-11T02:13:06.403Z,41.73
2018-04-11T02:14:06.517Z,41.79
2018-04-11T02:15:06.195Z,41.78
2018-04-11T02:16:06.175Z,41.75
2018-04-11T02:17:06.500Z,41.79
2018-04-11T02:18:06.424Z,41.8
2018-04-11T02:19:06.383Z,41.74
2018-04-11T02:20:06.163Z,41.8
2018-04-11T02:21:06.151Z,41.76
2018-04-11T02:22:06.279Z,41.74
2018-04-11T02:23:06.461Z,41.86
2018-04-11T02:24:06.391Z,41.8
2018-04-11T02:25:06.127Z,41.72
2018-04-11T02:26:06.164Z,41.82
2018-04-11T02:27:06.175Z,41.78
2018-04-11T02:28:06.262Z,41.65
2018-04-11T02:29:06.147Z,41.77
2018-04-11T02:30:06.151Z,41.81
2018-04-11T02:31:06.151Z,41.73
2018-04-11T02:32:06.294Z,41.79
2018-04-11T02:33:06.156Z,41.81
2018-04-11T02:34:06.123Z,41.7
2018-04-11T02:35:06.298Z,41.79
2018-04-11T02:36:06.242Z,41.79
2018-04-11T02:37:06.199Z,41.67
2018-04-11T02:38:06.161Z,41.82
2018-04-11T02:39:06.517Z,41.78
2018-04-11T02:40:06.177Z,41.7
2018-04-11T02:41:06.588Z,41.8
2018-04-11T02:42:06.174Z,41.73
2018-04-11T02:43:06.140Z,41.6
2018-04-11T02:44:06.457Z,41.77
2018-04-11T02:45:06.172Z,41.77
2018-04-11T02:46:06.172Z,41.81
2018-04-11T02:47:06.159Z,41.91
2018-04-11T02:48:06.679Z,41.77
2018-04-11T02:49:06.470Z,41.81
2018-04-11T02:50:06.217Z,41.75
2018-04-11T02:51:06.140Z,41.77
2018-04-11T02:52:06.175Z,41.74
2018-04-11T02:53:06.224Z,41.77
2018-04-11T02:54:06.300Z,41.78
2018-04-11T02:55:06.204Z,41.71
2018-04-11T02:56:06.284Z,41.79
2018-04-11T02:57:06.348Z,41.79
2018-04-11T02:58:06.132Z,41.71
2018-04-11T02:59:06.466Z,41.77
2018-04-11T03:00:06.166Z,41.78
2018-04-11T03:01:06.196Z,41.71
2018-04-11T03:02:06.203Z,41.73
2018-04-11T03:03:06.160Z,41.74
2018-04-11T03:04:06.526Z,41.65
2018-04-11T03:05:06.186Z,41.7
2018-04-11T03:06:06.348Z,41.75
2018-04-11T03:07:06.374Z,41.66
2018-04-11T03:08:06.414Z,41.77
2018-04-11T03:09:06.224Z,41.79
2018-04-11T03:10:06.608Z,41.74
2018-04-11T03:11:06.115Z,41.74
2018-04-11T03:12:06.620Z,41.73
2018-04-11T03:13:06.111Z,41.63
2018-04-11T03:14:06.186Z,41.66
2018-04-11T03:15:06.155Z,41.79
2018-04-11T03:16:06.113Z,41.75
2018-04-11T03:17:06.592Z,41.75
2018-04-11T03:18:06.152Z,41.86
2018-04-11T03:19:06.101Z,41.72
2018-04-11T03:20:06.174Z,41.73
2018-04-11T03:21:06.402Z,41.75
2018-04-11T03:22:06.488Z,41.7
2018-04-11T03:23:06.250Z,41.69
2018-04-11T03:24:06.363Z,41.72
2018-04-11T03:25:06.148Z,41.64
2018-04-11T03:26:06.308Z,41.75
2018-04-11T03:27:06.156Z,41.73
2018-04-11T03:28:06.557Z,41.69
2018-04-11T03:29:06.176Z,41.74
2018-04-11T03:30:06.163Z,41.79
2018-04-11T03:31:06.147Z,41.63
2018-04-11T03:32:06.169Z,41.76
2018-04-11T03:33:06.137Z,41.73
2018-04-11T03:34:06.150Z,41.65
2018-04-11T03:35:06.132Z,41.73
2018-04-11T03:36:06.140Z,41.75
2018-04-11T03:37:06.139Z,41.63
2018-04-11T03:38:06.147Z,41.7
2018-04-11T03:39:06.359Z,41.79
2018-04-11T03:40:06.119Z,41.62
2018-04-11T03:41:06.127Z,41.76
2018-04-11T03:42:06.294Z,41.73
2018-04-11T03:43:06.124Z,41.68
2018-04-11T03:44:06.158Z,41.71
2018-04-11T03:45:06.110Z,41.79
2018-04-11T03:46:06.136Z,41.6
2018-04-11T03:47:06.132Z,41.71
2018-04-11T03:48:06.491Z,41.69
2018-04-11T03:49:06.158Z,41.57
2018-04-11T03:50:06.135Z,41.73
2018-04-11T03:51:06.120Z,41.67
2018-04-11T03:52:06.571Z,41.57
2018-04-11T03:53:06.163Z,41.65
2018-04-11T03:54:06.357Z,41.66
2018-04-11T03:55:06.186Z,41.51
2018-04-11T03:56:06.428Z,41.5
2018-04-11T03:57:06.137Z,41.65
2018-04-11T03:58:06.141Z,41.51
2018-04-11T03:59:06.173Z,41.53
2018-04-11T04:00:06.221Z,41.54
2018-04-11T04:01:06.137Z,41.52
2018-04-11T04:02:06.128Z,41.5
2018-04-11T04:03:06.170Z,41.54
2018-04-11T04:04:06.129Z,41.4
2018-04-11T04:05:06.197Z,41.4
2018-04-11T04:06:06.135Z,41.46
2018-04-11T04:07:06.142Z,41.36
2018-04-11T04:08:06.130Z,41.39
2018-04-11T04:09:06.405Z,41.38
2018-04-11T04:10:06.167Z,41.33
2018-04-11T04:11:06.132Z,41.4
2018-04-11T04:12:06.563Z,41.29
2018-04-11T04:13:06.158Z,41.28
2018-04-11T04:14:06.190Z,41.25
2018-04-11T04:15:06.175Z,41.27
2018-04-11T04:16:06.541Z,41.17
2018-04-11T04:17:06.375Z,41.29
2018-04-11T04:18:06.107Z,41.12
2018-04-11T04:19:06.269Z,41.16
2018-04-11T04:20:06.148Z,41.19
2018-04-11T04:21:06.149Z,41.23
2018-04-11T04:22:06.457Z,41.2
2018-04-11T04:23:06.113Z,41.2
2018-04-11T04:24:06.353Z,41.3
2018-04-11T04:25:06.120Z,41.17
2018-04-11T04:26:06.239Z,41.17
2018-04-11T04:27:06.135Z,41.13
2018-04-11T04:28:06.173Z,41.21
2018-04-11T04:29:06.159Z,41.18
2018-04-11T04:30:06.105Z,41.15
2018-04-11T04:31:06.121Z,41.18
2018-04-11T04:32:06.192Z,41.24
2018-04-11T04:33:06.098Z,41.25
2018-04-11T04:34:06.221Z,41.2
2018-04-11T04:35:06.125Z,41.16
2018-04-11T04:36:06.139Z,41.24
2018-04-11T04:37:06.760Z,41.18
2018-04-11T04:38:06.133Z,41.23
2018-04-11T04:39:06.136Z,41.27
2018-04-11T04:40:06.293Z,41.37
2018-04-11T04:41:06.096Z,41.17
2018-04-11T04:42:06.228Z,41.21
2018-04-11T04:43:06.120Z,41.15
2018-04-11T04:44:06.204Z,41.3
2018-04-11T04:45:06.111Z,41.33
2018-04-11T04:46:06.218Z,41.18
2018-04-11T04:47:06.173Z,41.18
2018-04-11T04:48:06.137Z,41.41
2018-04-11T04:49:06.430Z,41.13
2018-04-11T04:50:06.144Z,41.19
2018-04-11T04:51:06.245Z,41.24
2018-04-11T04:52:06.694Z,41.18
2018-04-11T04:53:06.257Z,41.16
2018-04-11T04:54:06.216Z,41.21
2018-04-11T04:55:06.131Z,41.22
2018-04-11T04:56:06.158Z,41.21
2018-04-11T04:57:06.096Z,41.21
2018-04-11T04:58:06.211Z,41.29
2018-04-11T04:59:06.154Z,41.19
2018-04-11T05:00:06.104Z,41.2
2018-04-11T05:01:06.158Z,41.28
2018-04-11T05:02:06.154Z,41.2
2018-04-11T05:03:06.399Z,41.32
2018-04-11T05:04:06.077Z,41.3
2018-04-11T05:05:06.284Z,41.1
2018-04-11T05:06:06.524Z,41.15
2018-04-11T05:07:06.130Z,41.19
2018-04-11T05:08:06.117Z,41.32
2018-04-11T05:09:06.085Z,41.17
2018-04-11T05:10:06.069Z,41.25
2018-04-11T05:11:06.661Z,41.19
2018-04-11T05:12:06.086Z,41.18
2018-04-11T05:13:06.196Z,41.18
2018-04-11T05:14:06.091Z,41.14
2018-04-11T05:15:06.218Z,41.17
2018-04-11T05:16:06.147Z,41.15
2018-04-11T05:17:06.084Z,41.14
2018-04-11T05:18:06.211Z,41.23
2018-04-11T05:19:06.107Z,41.11
2018-04-11T05:20:06.087Z,41.25
2018-04-11T05:21:06.097Z,41.15
2018-04-11T05:22:06.117Z,41.11
2018-04-11T05:23:06.176Z,41.16
2018-04-11T05:24:06.221Z,41.09
2018-04-11T05:25:06.504Z,41.07
2018-04-11T05:26:06.075Z,41.18
2018-04-11T05:27:06.123Z,41.25
2018-04-11T05:28:06.112Z,40.89
2018-04-11T05:29:06.083Z,41.17
2018-04-11T05:30:06.061Z,41.2
2018-04-11T05:31:06.104Z,41.01
2018-04-11T05:32:06.111Z,41.15
2018-04-11T05:33:06.156Z,41.06
2018-04-11T05:34:06.498Z,41.03
2018-04-11T05:35:06.172Z,41.1
2018-04-11T05:36:06.087Z,41.11
2018-04-11T05:37:06.073Z,40.94
2018-04-11T05:38:06.066Z,41.08
2018-04-11T05:39:06.104Z,41.04
2018-04-11T05:40:06.071Z,40.97
2018-04-11T05:41:06.108Z,41.08
2018-04-11T05:42:06.313Z,40.99
2018-04-11T05:43:06.095Z,40.91
2018-04-11T05:44:06.484Z,41.04
2018-04-11T05:45:06.140Z,40.95
2018-04-11T05:46:06.090Z,40.89
2018-04-11T05:47:06.144Z,41.04
2018-04-11T05:48:06.064Z,41.3
2018-04-11T05:49:06.109Z,41.79
2018-04-11T05:50:06.117Z,41.76
2018-04-11T05:51:06.096Z,41.62
2018-04-11T05:52:06.098Z,41.71
2018-04-11T05:53:06.246Z,41.73
2018-04-11T05:54:06.072Z,41.66
2018-04-11T05:55:06.105Z,41.73
2018-04-11T05:56:06.058Z,41.75
2018-04-11T05:57:06.117Z,41.47
2018-04-11T05:58:06.173Z,41.52
2018-04-11T05:59:06.089Z,41.5
2018-04-11T06:00:06.075Z,41.38
2018-04-11T06:01:06.125Z,41.56
2018-04-11T06:02:06.064Z,41.24
2018-04-11T06:03:06.179Z,41.62
2018-04-11T06:04:06.072Z,41.55
2018-04-11T06:05:06.091Z,41.48
2018-04-11T06:06:06.098Z,41.32
2018-04-11T06:07:06.088Z,41.36
2018-04-11T06:08:06.108Z,41.43
2018-04-11T06:09:06.306Z,41.57
2018-04-11T06:10:06.064Z,41.41
2018-04-11T06:11:06.050Z,41.66
2018-04-11T06:12:06.098Z,41.77
2018-04-11T06:13:06.126Z,41.73
2018-04-11T06:14:06.260Z,42.05
2018-04-11T06:15:06.100Z,41.78
2018-04-11T06:16:06.204Z,41.44
2018-04-11T06:17:06.224Z,41.74
2018-04-11T06:18:06.107Z,42.32
2018-04-11T06:19:06.117Z,41.66
2018-04-11T06:20:06.216Z,41.95
2018-04-11T06:21:06.114Z,42.33
2018-04-11T06:22:06.083Z,41.88
2018-04-11T06:23:06.581Z,41.85
2018-04-11T06:24:06.243Z,41.8
2018-04-11T06:25:06.072Z,41.75
2018-04-11T06:26:06.100Z,41.72
2018-04-11T06:27:06.091Z,41.69
2018-04-11T06:28:06.263Z,41.5
2018-04-11T06:29:06.256Z,41.54
2018-04-11T06:30:06.301Z,41.76
2018-04-11T06:31:06.123Z,41.53
2018-04-11T06:32:06.085Z,41.58
2018-04-11T06:33:06.119Z,41.79
2018-04-11T06:34:06.119Z,42.06
2018-04-11T06:35:06.197Z,42.02
2018-04-11T06:36:06.042Z,42
2018-04-11T06:37:06.103Z,41.79
2018-04-11T06:38:06.106Z,41.75
2018-04-11T06:39:06.114Z,41.81
2018-04-11T06:40:06.071Z,41.67
2018-04-11T06:41:06.255Z,41.67
2018-04-11T06:42:06.164Z,41.65
2018-04-11T06:43:06.231Z,41.62
2018-04-11T06:44:06.106Z,41.75
2018-04-11T06:45:06.100Z,41.78
2018-04-11T06:46:06.101Z,41.7
2018-04-11T06:47:06.090Z,41.81
2018-04-11T06:48:06.069Z,42.01
2018-04-11T06:49:06.110Z,42.05
2018-04-11T06:50:06.106Z,42.21
2018-04-11T06:51:06.092Z,42.43
2018-04-11T06:52:06.046Z,42.12
2018-04-11T06:53:06.072Z,42.02
2018-04-11T06:54:06.080Z,42.11
2018-04-11T06:55:06.092Z,41.96
2018-04-11T06:56:06.073Z,42.04
2018-04-11T06:57:06.107Z,42.05
2018-04-11T06:58:06.058Z,41.94
2018-04-11T06:59:06.095Z,41.98
2018-04-11T07:00:06.114Z,41.93
2018-04-11T07:01:06.118Z,41.77
2018-04-11T07:02:06.192Z,41.9
2018-04-11T07:03:06.074Z,41.78
2018-04-11T07:04:06.080Z,41.63
2018-04-11T07:05:06.245Z,41.76
2018-04-11T07:06:06.089Z,41.55
2018-04-11T07:07:06.079Z,41.34
2018-04-11T07:08:06.094Z,41.99
2018-04-11T07:09:06.067Z,41.68
2018-04-11T07:10:06.075Z,41.53
2018-04-11T07:11:06.057Z,41.72
2018-04-11T07:12:06.057Z,41.68
2018-04-11T07:13:06.094Z,41.61
2018-04-11T07:14:06.306Z,41.7
2018-04-11T07:15:06.073Z,41.64
2018-04-11T07:16:06.054Z,41.54
2018-04-11T07:17:06.069Z,41.64
2018-04-11T07:18:06.059Z,41.54
2018-04-11T07:19:06.233Z,41.41
2018-04-11T07:20:06.099Z,41.7
2018-04-11T07:21:06.040Z,41.33
2018-04-11T07:22:06.079Z,41.31
2018-04-11T07:23:06.133Z,41.32
2018-04-11T07:24:06.251Z,41.31
2018-04-11T07:25:06.277Z,41.17
2018-04-11T07:26:06.079Z,41.65
2018-04-11T07:27:06.072Z,41.7
2018-04-11T07:28:06.043Z,41.6
2018-04-11T07:29:06.043Z,41.65
2018-04-11T07:30:06.061Z,41.69
2018-04-11T07:31:06.074Z,41.66
2018-04-11T07:32:06.051Z,41.75
2018-04-11T07:33:06.081Z,41.72
2018-04-11T07:34:06.080Z,41.54
2018-04-11T07:35:06.168Z,41.73
2018-04-11T07:36:06.172Z,41.77
2018-04-11T07:37:06.035Z,41.97
2018-04-11T07:38:06.196Z,42.02
2018-04-11T07:39:06.044Z,41.96
2018-04-11T07:40:06.169Z,41.88
2018-04-11T07:41:06.281Z,41.98
2018-04-11T07:42:06.062Z,41.99
2018-04-11T07:43:06.040Z,41.76
2018-04-11T07:44:06.095Z,41.96
2018-04-11T07:45:06.105Z,41.96
2018-04-11T07:46:06.207Z,41.72
2018-04-11T07:47:06.058Z,41.84
2018-04-11T07:48:06.069Z,41.85
2018-04-11T07:49:06.069Z,41.72
2018-04-11T07:50:06.078Z,41.91
2018-04-11T07:51:06.068Z,41.81
2018-04-11T07:52:06.059Z,41.63
2018-04-11T07:53:06.100Z,41.75
2018-04-11T07:54:06.527Z,41.81
2018-04-11T07:55:06.041Z,41.61
2018-04-11T07:56:06.050Z,41.72
2018-04-11T07:57:06.021Z,41.83
2018-04-11T07:58:06.065Z,41.62
2018-04-11T07:59:06.025Z,41.73
2018-04-11T08:00:06.027Z,41.76
2018-04-11T08:01:06.055Z,41.68
2018-04-11T08:02:06.055Z,41.82
2018-04-11T08:03:06.143Z,41.76
2018-04-11T08:04:06.153Z,41.74
2018-04-11T08:05:06.071Z,41.72
2018-04-11T08:06:06.044Z,41.75
2018-04-11T08:07:06.038Z,41.69
2018-04-11T08:08:06.178Z,41.82
2018-04-11T08:09:06.071Z,41.84
2018-04-11T08:10:06.187Z,41.57
2018-04-11T08:11:06.096Z,41.67
2018-04-11T08:12:06.054Z,41.72
2018-04-11T08:13:06.108Z,41.42
2018-04-11T08:14:06.041Z,41.72
2018-04-11T08:15:06.123Z,41.77
2018-04-11T08:16:06.021Z,41.53
2018-04-11T08:17:06.086Z,41.72
2018-04-11T08:18:06.111Z,41.69
2018-04-11T08:19:06.041Z,41.48
2018-04-11T08:20:06.003Z,41.67
2018-04-11T08:21:06.063Z,41.66
2018-04-11T08:22:06.070Z,41.56
2018-04-11T08:23:06.071Z,41.54
2018-04-11T08:24:06.068Z,41.63
2018-04-11T08:25:06.045Z,41.49
2018-04-11T08:26:06.161Z,41.57
2018-04-11T08:27:06.046Z,41.61
2018-04-11T08:28:06.079Z,41.53
2018-04-11T08:29:06.051Z,41.5
2018-04-11T08:30:06.051Z,41.49
2018-04-11T08:31:06.064Z,41.48
2018-04-11T08:32:06.045Z,41.56
2018-04-11T08:33:06.206Z,41.6
2018-04-11T08:34:06.108Z,41.37
2018-04-11T08:35:06.053Z,41.55
2018-04-11T08:36:06.021Z,41.54
2018-04-11T08:37:06.033Z,41.37
2018-04-11T08:38:06.087Z,41.53
2018-04-11T08:39:06.041Z,41.54
2018-04-11T08:40:06.063Z,41.42
2018-04-11T08:41:06.028Z,41.42
2018-04-11T08:42:06.065Z,41.5
2018-04-11T08:43:06.012Z,41.48
2018-04-11T08:44:06.064Z,41.41
2018-04-11T08:45:06.027Z,41.56
2018-04-11T08:46:06.025Z,41.38
2018-04-11T08:47:06.027Z,41.5
2018-04-11T08:48:06.089Z,41.47
2018-04-11T08:49:06.028Z,41.31
2018-04-11T08:50:06.037Z,41.37
2018-04-11T08:51:06.067Z,41.45
2018-04-11T08:52:06.062Z,41.4
2018-04-11T08:53:06.028Z,41.44
2018-04-11T08:54:06.070Z,41.48
2018-04-11T08:55:06.009Z,41.42
2018-04-11T08:56:06.031Z,41.47
2018-04-11T08:57:06.024Z,41.62
2018-04-11T08:58:06.022Z,41.78
2018-04-11T08:59:06.038Z,41.69
2018-04-11T09:00:06.058Z,41.65
2018-04-11T09:01:06.022Z,41.87
2018-04-11T09:02:06.022Z,41.9
2018-04-11T09:03:06.100Z,41.94
2018-04-11T09:04:06.037Z,41.81
2018-04-11T09:05:06.007Z,41.83
2018-04-11T09:06:06.075Z,42.03
2018-04-11T09:07:06.041Z,41.85
2018-04-11T09:08:06.134Z,41.95
2018-04-11T09:09:06.083Z,42.05
2018-04-11T09:10:06.023Z,41.87
2018-04-11T09:11:06.027Z,42.07
2018-04-11T09:12:06.096Z,42.08
2018-04-11T09:13:06.050Z,42.08
2018-04-11T09:14:05.996Z,42.21
2018-04-11T09:15:06.034Z,42.32
2018-04-11T09:16:06.009Z,42.14
2018-04-11T09:17:06.012Z,42.25
2018-04-11T09:18:06.024Z,42.34
2018-04-11T09:19:06.076Z,42.15
2018-04-11T09:20:06.055Z,42.22
2018-04-11T09:21:06.031Z,42.34
2018-04-11T09:22:06.063Z,42.31
2018-04-11T09:23:06.061Z,42.38
2018-04-11T09:24:06.112Z,42.37
2018-04-11T09:25:06.168Z,42.16
2018-04-11T09:26:06.322Z,42.31
2018-04-11T09:27:06.458Z,42.42
2018-04-11T09:28:06.019Z,42.14
2018-04-11T09:29:06.010Z,42.35
2018-04-11T09:30:06.001Z,42.42
2018-04-11T09:31:06.005Z,42.16
2018-04-11T09:32:05.997Z,42.37
2018-04-11T09:33:06.221Z,42.28
2018-04-11T09:34:06.071Z,42.11
2018-04-11T09:35:05.974Z,42.31
2018-04-11T09:36:06.002Z,42.36
2018-04-11T09:37:06.020Z,42.19
2018-04-11T09:38:06.035Z,42.32
2018-04-11T09:39:06.041Z,42.26
2018-04-11T09:40:06.146Z,42.08
2018-04-11T09:41:06.059Z,42.3
2018-04-11T09:42:05.999Z,42.2
2018-04-11T09:43:06.001Z,42.09
2018-04-11T09:44:06.016Z,42.3
2018-04-11T09:45:06.056Z,42.43
2018-04-11T09:46:06.104Z,42.14
2018-04-11T09:47:06.021Z,42.29
2018-04-11T09:48:06.026Z,42.29
2018-04-11T09:49:06.040Z,42.1
2018-04-11T09:50:06.026Z,42.25
2018-04-11T09:51:06.088Z,42.2
2018-04-11T09:52:06.017Z,42.13
2018-04-11T09:53:06.037Z,42.21
2018-04-11T09:54:06.002Z,42.15
2018-04-11T09:55:06.006Z,42.04
2018-04-11T09:56:06.017Z,42.13
2018-04-11T09:57:06.012Z,42.26
2018-04-11T09:58:06.198Z,42.07
2018-04-11T09:59:05.998Z,42.1
2018-04-11T10:00:06.020Z,42.16
2018-04-11T10:01:06.006Z,41.94
2018-04-11T10:02:06.026Z,42.14
2018-04-11T10:03:06.048Z,42.14
2018-04-11T10:04:06.000Z,41.97
2018-04-11T10:05:06.003Z,42.06
2018-04-11T10:06:06.031Z,42.16
2018-04-11T10:07:06.008Z,41.89
2018-04-11T10:08:06.028Z,42.1
2018-04-11T10:09:06.006Z,42.08
2018-04-11T10:10:06.013Z,41.87
2018-04-11T10:11:06.001Z,42.02
2018-04-11T10:12:05.999Z,42.09
2018-04-11T10:13:06.155Z,41.86
2018-04-11T10:14:06.065Z,42.01
2018-04-11T10:15:06.005Z,42.05
2018-04-11T10:16:06.036Z,41.75
2018-04-11T10:17:06.024Z,41.94
2018-04-11T10:18:06.190Z,42.02
2018-04-11T10:19:06.166Z,41.79
2018-04-11T10:20:06.001Z,41.89
2018-04-11T10:21:06.139Z,41.95
2018-04-11T10:22:06.014Z,41.79
2018-04-11T10:23:06.028Z,41.82
2018-04-11T10:24:06.025Z,41.88
2018-04-11T10:25:06.064Z,41.73
2018-04-11T10:26:06.009Z,41.81
2018-04-11T10:27:06.029Z,41.79
2018-04-11T10:28:06.252Z,41.79
2018-04-11T10:29:06.025Z,41.84
2018-04-11T10:30:06.063Z,41.82
2018-04-11T10:31:06.053Z,41.7
2018-04-11T10:32:06.166Z,41.73
2018-04-11T10:33:06.134Z,41.82
2018-04-11T10:34:06.214Z,41.65
2018-04-11T10:35:06.000Z,41.83
2018-04-11T10:36:06.094Z,41.83
2018-04-11T10:37:06.050Z,41.74
2018-04-11T10:38:06.126Z,41.8
2018-04-11T10:39:06.056Z,41.7
2018-04-11T10:40:06.224Z,41.65
2018-04-11T10:41:06.027Z,41.74
2018-04-11T10:42:05.997Z,41.76
2018-04-11T10:43:06.145Z,41.69
2018-04-11T10:44:05.996Z,41.76
2018-04-11T10:45:06.038Z,41.76
2018-04-11T10:46:06.013Z,41.64
2018-04-11T10:47:06.009Z,41.7
2018-04-11T10:48:06.046Z,41.76
2018-04-11T10:49:05.999Z,41.64
2018-04-11T10:50:06.011Z,41.7
2018-04-11T10:51:06.018Z,41.69
2018-04-11T10:52:06.016Z,41.71
2018-04-11T10:53:06.000Z,41.73
2018-04-11T10:54:06.001Z,41.75
2018-04-11T10:55:06.028Z,41.65
2018-04-11T10:56:06.004Z,41.74
2018-04-11T10:57:05.994Z,41.75
2018-04-11T10:58:06.000Z,41.63
2018-04-11T10:59:06.001Z,41.73
2018-04-11T11:00:05.996Z,41.79
2018-04-11T11:01:06.044Z,41.68
2018-04-11T11:02:06.021Z,41.77
2018-04-11T11:03:05.980Z,41.73
2018-04-11T11:04:06.001Z,41.67
2018-04-11T11:05:05.990Z,41.68
2018-04-11T11:06:06.006Z,41.73
2018-04-11T11:07:06.010Z,41.62
2018-04-11T11:08:06.099Z,41.64
2018-04-11T11:09:05.975Z,41.75
2018-04-11T11:10:06.005Z,41.54
2018-04-11T11:11:06.026Z,41.7
2018-04-11T11:12:06.161Z,41.65
2018-04-11T11:13:06.006Z,41.56
2018-04-11T11:14:06.045Z,41.65
2018-04-11T11:15:05.993Z,41.58
2018-04-11T11:16:05.978Z,41.59
2018-04-11T11:17:05.975Z,41.64
2018-04-11T11:18:05.997Z,41.57
2018-04-11T11:19:06.017Z,41.53
2018-04-11T11:20:06.068Z,41.66
2018-04-11T11:21:06.123Z,41.68
2018-04-11T11:22:06.007Z,41.51
2018-04-11T11:23:06.042Z,41.64
2018-04-11T11:24:06.009Z,41.64
2018-04-11T11:25:05.998Z,41.53
2018-04-11T11:26:06.148Z,41.57
2018-04-11T11:27:06.074Z,41.62
2018-04-11T11:28:06.037Z,41.58
2018-04-11T11:29:06.013Z,41.65
2018-04-11T11:30:05.954Z,41.66
2018-04-11T11:31:05.973Z,41.54
2018-04-11T11:32:06.219Z,41.58
2018-04-11T11:33:06.020Z,41.65
2018-04-11T11:34:05.972Z,41.53
2018-04-11T11:35:06.010Z,41.56
2018-04-11T11:36:06.013Z,41.64
2018-04-11T11:37:05.985Z,41.53
2018-04-11T11:38:05.984Z,41.52
2018-04-11T11:39:05.954Z,41.59
2018-04-11T11:40:05.995Z,41.51
2018-04-11T11:41:06.151Z,41.58
2018-04-11T11:42:05.991Z,41.6
2018-04-11T11:43:05.982Z,41.45
2018-04-11T11:44:06.033Z,41.53
2018-04-11T11:45:05.986Z,41.61
2018-04-11T11:46:06.014Z,41.45
2018-04-11T11:47:06.105Z,41.58
2018-04-11T11:48:05.973Z,41.63
2018-04-11T11:49:06.153Z,41.51
2018-04-11T11:50:05.997Z,41.56
2018-04-11T11:51:05.978Z,41.53
2018-04-11T11:52:06.169Z,41.45
2018-04-11T11:53:05.967Z,41.55
2018-04-11T11:54:06.072Z,41.6
2018-04-11T11:55:06.032Z,41.53
2018-04-11T11:56:05.981Z,41.64
2018-04-11T11:57:05.966Z,41.65
2018-04-11T11:58:05.982Z,41.78
2018-04-11T11:59:06.184Z,41.85
2018-04-11T12:00:05.990Z,41.92
2018-04-11T12:01:06.004Z,41.67
2018-04-11T12:02:05.955Z,41.82
2018-04-11T12:03:05.945Z,41.79
2018-04-11T12:04:05.981Z,41.68
2018-04-11T12:05:05.960Z,41.78
2018-04-11T12:06:05.996Z,41.73
2018-04-11T12:07:05.992Z,41.65
2018-04-11T12:08:06.000Z,41.8
2018-04-11T12:09:06.136Z,41.77
2018-04-11T12:10:05.977Z,41.55
2018-04-11T12:11:05.962Z,41.74
2018-04-11T12:12:05.945Z,41.78
2018-04-11T12:13:06.201Z,41.56
2018-04-11T12:14:05.972Z,41.78
2018-04-11T12:15:05.943Z,41.8
2018-04-11T12:16:06.012Z,41.54
2018-04-11T12:17:05.960Z,41.69
2018-04-11T12:18:05.963Z,41.66
2018-04-11T12:19:06.102Z,41.53
2018-04-11T12:20:06.117Z,41.6
2018-04-11T12:21:05.993Z,41.65
2018-04-11T12:22:06.019Z,41.43
2018-04-11T12:23:05.996Z,41.68
2018-04-11T12:24:06.297Z,41.93
2018-04-11T12:25:06.079Z,41.92
2018-04-11T12:26:05.961Z,42.12
2018-04-11T12:27:05.940Z,42.1
2018-04-11T12:28:06.093Z,42.08
2018-04-11T12:29:05.999Z,42.26
2018-04-11T12:30:05.987Z,42.37
2018-04-11T12:31:05.961Z,42.24
2018-04-11T12:32:06.081Z,42.29
2018-04-11T12:33:06.094Z,42.33
2018-04-11T12:34:06.140Z,42.44
2018-04-11T12:35:05.961Z,42.34
2018-04-11T12:36:06.025Z,42.41
2018-04-11T12:37:06.226Z,42.19
2018-04-11T12:38:06.025Z,42.28
2018-04-11T12:39:05.976Z,42.31
2018-04-11T12:40:05.944Z,42.08
2018-04-11T12:41:05.954Z,42.3
2018-04-11T12:42:06.160Z,42.28
2018-04-11T12:43:05.982Z,42
2018-04-11T12:44:06.006Z,42.15
2018-04-11T12:45:06.132Z,42.22
2018-04-11T12:46:05.960Z,41.94
2018-04-11T12:47:05.968Z,42.31
2018-04-11T12:48:06.261Z,42.17
2018-04-11T12:49:05.995Z,41.95
2018-04-11T12:50:05.989Z,42.2
2018-04-11T12:51:06.030Z,42.14
2018-04-11T12:52:05.986Z,41.94
2018-04-11T12:53:05.949Z,42.2
2018-04-11T12:54:05.990Z,42.19
2018-04-11T12:55:05.962Z,42.19